Time;durP1;ratioP1;P1;durP2;ratioP2;P2;SDS_P1;SDS_P2;PMS_P1;PMS_P2;Temp;Humidity;BMP_temperature;BMP_pressure;BME280_temperature;BME280_humidity;BME280_pressure;Samples;Min_cycle;Max_cycle;Signal;HPM_P1;HPM_P2
2021/03/07 00:01:06;;;;;;;15.10;5.53;;;;;;;-2.39;66.16;100223.45;126288;1108;23654;-79
2021/03/07 00:03:34;;;;;;;9.55;5.30;;;;;;;-2.38;66.23;100225.12;126558;1105;23254;-79
2021/03/07 00:06:02;;;;;;;10.20;4.67;;;;;;;-2.39;66.02;100214.60;126346;1106;23097;-79
2021/03/07 00:08:39;;;;;;;13.43;5.43;;;;;;;-2.37;66.15;100212.62;126272;1106;26801;-79
2021/03/07 00:11:21;;;;;;;12.03;5.90;;;;;;;-2.37;66.38;100204.61;126302;1107;23102;-79
2021/03/07 00:13:48;;;;;;;11.30;5.40;;;;;;;-2.43;66.40;100199.89;126416;1109;23623;-79
2021/03/07 00:16:16;;;;;;;9.90;4.40;;;;;;;-2.41;66.40;100200.58;126446;1107;26180;-79
2021/03/07 00:18:44;;;;;;;10.40;5.30;;;;;;;-2.41;66.66;100200.58;126426;1106;23183;-79
2021/03/07 00:21:12;;;;;;;12.07;5.33;;;;;;;-2.41;66.75;100197.91;126393;1109;23043;-80
2021/03/07 00:23:39;;;;;;;11.77;5.87;;;;;;;-2.40;66.39;100191.58;126338;1108;23038;-80
2021/03/07 00:26:07;;;;;;;14.83;6.93;;;;;;;-2.41;65.98;100184.56;126300;1106;23196;-79
2021/03/07 00:28:34;;;;;;;12.47;5.97;;;;;;;-2.41;66.64;100187.23;126432;1109;23049;-79
2021/03/07 00:31:02;;;;;;;16.27;6.00;;;;;;;-2.41;66.52;100184.56;126327;1108;23448;-80
2021/03/07 00:33:29;;;;;;;8.73;5.37;;;;;;;-2.43;66.44;100174.05;126484;1107;23361;-80
2021/03/07 00:35:58;;;;;;;11.13;4.90;;;;;;;-2.45;66.93;100164.56;126446;1108;25667;-79
2021/03/07 00:38:25;;;;;;;9.40;5.10;;;;;;;-2.46;66.99;100160.22;126471;1108;23093;-80
2021/03/07 00:40:53;;;;;;;10.00;5.55;;;;;;;-2.48;66.62;100151.53;126423;1109;23045;-79
2021/03/07 00:43:21;;;;;;;13.10;6.00;;;;;;;-2.51;67.06;100148.18;126450;1108;23631;-79
2021/03/07 00:45:48;;;;;;;13.73;5.30;;;;;;;-2.51;67.24;100148.18;126249;1107;23030;-79
2021/03/07 00:48:17;;;;;;;10.97;5.37;;;;;;;-2.52;67.09;100145.67;126397;1109;23173;-80
2021/03/07 00:50:44;;;;;;;11.80;5.37;;;;;;;-2.53;67.16;100139.50;126273;1108;23109;-80
2021/03/07 00:53:12;;;;;;;12.30;5.30;;;;;;;-2.53;67.19;100125.32;126395;1108;23035;-79
2021/03/07 00:55:40;;;;;;;11.63;5.10;;;;;;;-2.54;67.19;100128.98;126427;1108;23042;-80
2021/03/07 00:58:07;;;;;;;9.53;5.17;;;;;;;-2.57;68.04;100116.79;126466;1107;23020;-80
2021/03/07 01:00:34;;;;;;;10.50;5.30;;;;;;;-2.57;67.78;100119.45;126311;1107;23112;-79
2021/03/07 01:03:02;;;;;;;10.07;4.43;;;;;;;-2.58;67.51;100114.28;126550;1106;23644;-79
2021/03/07 01:05:30;;;;;;;9.23;5.03;;;;;;;-2.60;67.32;100114.47;126420;1107;27352;-79
2021/03/07 01:07:58;;;;;;;11.70;4.97;;;;;;;-2.62;67.64;100110.28;126203;1107;27339;-79
2021/03/07 01:10:38;;;;;;;14.43;5.10;;;;;;;-2.62;67.26;100111.12;126406;1107;23226;-79
2021/03/07 01:13:06;;;;;;;13.27;6.60;;;;;;;-2.66;67.68;100091.09;126269;1109;23091;-79
2021/03/07 01:15:34;;;;;;;12.23;5.83;;;;;;;-2.68;68.11;100090.41;126484;1107;25825;-78
2021/03/07 01:18:02;;;;;;;13.90;5.20;;;;;;;-2.71;67.53;100082.72;126342;1109;23031;-79
2021/03/07 01:20:30;;;;;;;12.15;5.40;;;;;;;-2.72;68.03;100081.05;126454;1109;23038;-79
2021/03/07 01:22:57;;;;;;;13.47;5.40;;;;;;;-2.72;68.27;100082.88;126380;1107;23041;-79
2021/03/07 01:25:27;;;;;;;11.70;5.43;;;;;;;-2.75;67.72;100070.72;126510;1109;26076;-79
2021/03/07 01:27:54;;;;;;;9.23;5.23;;;;;;;-2.76;68.02;100071.70;126314;1109;23225;-79
2021/03/07 01:30:22;;;;;;;9.47;4.43;;;;;;;-2.77;68.11;100071.87;126353;1109;23084;-78
2021/03/07 01:32:50;;;;;;;10.13;4.50;;;;;;;-2.79;68.61;100063.19;126254;1107;23824;-79
2021/03/07 01:35:19;;;;;;;11.83;4.70;;;;;;;-2.80;68.56;100053.52;126293;1109;23088;-78
2021/03/07 01:37:46;;;;;;;12.00;5.37;;;;;;;-2.80;68.82;100056.18;125844;1109;22999;-79
2021/03/07 01:40:17;;;;;;;11.13;4.77;;;;;;;-2.81;68.82;100052.67;126578;1108;23707;-80
2021/03/07 01:42:50;;;;;;;7.17;4.23;;;;;;;-2.80;68.65;100050.84;128166;1108;23030;-78
2021/03/07 01:45:19;;;;;;;11.00;5.17;;;;;;;-2.80;69.11;100054.34;128410;1105;23381;-80
2021/03/07 01:47:49;;;;;;;7.50;3.77;;;;;;;-2.78;69.46;100051.53;128244;1106;23575;-79
2021/03/07 01:50:18;;;;;;;9.03;3.97;;;;;;;-2.76;69.46;100047.70;128322;1108;22829;-79
2021/03/07 01:52:46;;;;;;;8.43;4.23;;;;;;;-2.74;69.54;100045.69;128275;1107;22831;-79
2021/03/07 01:55:16;;;;;;;8.30;3.80;;;;;;;-2.73;68.85;100044.70;127990;1108;22824;-78
2021/03/07 01:57:44;;;;;;;7.87;4.57;;;;;;;-2.71;68.83;100041.88;126423;1109;23051;-79
2021/03/07 02:00:14;;;;;;;9.00;4.30;;;;;;;-2.76;69.04;100020.21;126495;1109;24747;-79
2021/03/07 02:02:47;;;;;;;9.90;4.37;;;;;;;-2.69;68.93;100021.22;126823;1104;23237;-80
2021/03/07 02:05:17;;;;;;;8.97;3.90;;;;;;;-2.68;68.98;100023.73;127187;1105;23642;-80
2021/03/07 02:07:45;;;;;;;8.97;4.27;;;;;;;-2.68;68.74;100018.39;127023;1104;23102;-79
2021/03/07 02:10:17;;;;;;;9.47;4.60;;;;;;;-2.67;68.74;100024.56;126979;1105;26434;-80
2021/03/07 02:12:48;;;;;;;7.83;4.10;;;;;;;-2.66;68.60;100016.41;126542;1105;23136;-80
2021/03/07 02:15:16;;;;;;;7.75;4.10;;;;;;;-2.65;68.86;100020.75;126869;1105;23046;-79
2021/03/07 02:17:45;;;;;;;9.30;3.97;;;;;;;-2.64;68.56;100017.09;126743;1106;23212;-80
2021/03/07 02:20:13;;;;;;;8.27;3.80;;;;;;;-2.64;68.80;100010.92;126420;1106;23187;-79
2021/03/07 02:22:56;;;;;;;8.70;4.30;;;;;;;-2.64;68.36;100009.09;127197;1105;23034;-79
2021/03/07 02:25:24;;;;;;;11.93;4.60;;;;;;;-2.62;68.72;100009.77;126744;1105;24864;-79
2021/03/07 02:27:52;;;;;;;10.33;3.60;;;;;;;-2.60;68.21;99997.11;126516;1106;23196;-80
2021/03/07 02:30:20;;;;;;;13.50;3.90;;;;;;;-2.61;68.20;99990.09;126847;1106;25697;-80
2021/03/07 02:33:15;;;;;;;8.90;3.80;;;;;;;-2.58;68.56;99991.58;126317;1106;23477;-80
2021/03/07 02:35:57;;;;;;;7.40;4.50;;;;;;;-2.60;68.51;99980.27;126866;1104;23125;-80
2021/03/07 02:38:25;;;;;;;8.50;3.70;;;;;;;-2.60;68.15;99981.10;126741;1105;27581;-79
2021/03/07 02:40:55;;;;;;;10.83;5.50;;;;;;;-2.59;67.73;99972.08;126602;1105;23111;-80
2021/03/07 02:43:22;;;;;;;10.47;4.50;;;;;;;-2.58;67.99;99971.08;126998;1105;23105;-80
2021/03/07 02:45:50;;;;;;;9.70;4.27;;;;;;;-2.56;67.88;99962.92;126589;1106;23055;-79
2021/03/07 02:48:21;;;;;;;10.60;4.87;;;;;;;-2.55;67.81;99957.42;126566;1105;23695;-78
2021/03/07 02:50:49;;;;;;;11.13;4.93;;;;;;;-2.54;68.00;99953.76;126424;1105;22970;-79
2021/03/07 02:53:21;;;;;;;10.60;4.67;;;;;;;-2.55;67.51;99949.42;126472;1103;23060;-79
2021/03/07 02:55:56;;;;;;;8.47;4.40;;;;;;;-2.56;67.79;99945.08;126308;1105;23242;-79
2021/03/07 02:58:23;;;;;;;6.97;4.10;;;;;;;-2.57;67.69;99946.08;126373;1105;27326;-79
2021/03/07 03:00:55;;;;;;;7.40;3.80;;;;;;;-2.56;67.20;99939.75;126341;1106;23051;-79
2021/03/07 03:03:28;;;;;;;9.47;4.50;;;;;;;-2.56;67.27;99941.58;126369;1105;26118;-80
2021/03/07 03:07:25;;;;;;;13.43;4.60;;;;;;;-2.58;67.52;99941.73;124329;1109;24646;-74
2021/03/07 03:10:05;;;;;;;9.17;5.37;;;;;;;-2.57;67.32;99926.57;128326;1110;23651;-73
2021/03/07 03:12:35;;;;;;;10.37;4.70;;;;;;;-2.59;67.11;99926.73;128186;1110;22901;-74
2021/03/07 03:15:04;;;;;;;7.90;4.67;;;;;;;-2.60;66.99;99919.75;128292;1110;22952;-71
2021/03/07 03:17:32;;;;;;;9.43;4.10;;;;;;;-2.60;67.30;99916.25;128167;1111;22832;-71
2021/03/07 03:20:00;;;;;;;9.10;4.40;;;;;;;-2.58;66.87;99916.90;128334;1111;22814;-71
2021/03/07 03:22:27;;;;;;;11.17;4.73;;;;;;;-2.58;66.89;99907.06;128171;1111;22949;-71
2021/03/07 03:24:55;;;;;;;9.57;3.80;;;;;;;-2.58;67.10;99903.56;128285;1112;22846;-71
2021/03/07 03:27:22;;;;;;;9.27;4.60;;;;;;;-2.57;66.98;99905.23;128263;1110;22955;-71
2021/03/07 03:29:49;;;;;;;9.63;4.67;;;;;;;-2.57;67.41;99899.89;128300;1111;23453;-71
2021/03/07 03:32:17;;;;;;;8.47;4.17;;;;;;;-2.57;67.09;99887.39;128167;1111;23509;-71
2021/03/07 03:34:44;;;;;;;8.83;4.73;;;;;;;-2.57;66.95;99876.73;128297;1111;22860;-71
2021/03/07 03:37:12;;;;;;;9.43;3.70;;;;;;;-2.57;66.79;99863.39;128185;1110;22987;-73
2021/03/07 03:39:39;;;;;;;7.83;4.23;;;;;;;-2.57;66.49;99860.72;128299;1111;22894;-74
2021/03/07 03:42:07;;;;;;;11.67;4.40;;;;;;;-2.57;66.49;99858.05;128167;1111;22909;-74
2021/03/07 03:44:38;;;;;;;10.40;4.60;;;;;;;-2.57;66.39;99843.88;128266;1112;22902;-74
2021/03/07 03:47:09;;;;;;;8.97;4.67;;;;;;;-2.59;67.14;99844.05;128220;1111;22878;-74
2021/03/07 03:49:59;;;;;;;9.43;5.10;;;;;;;-2.58;66.96;99850.22;128308;1110;23786;-74
2021/03/07 03:52:26;;;;;;;9.90;4.70;;;;;;;-2.58;66.57;99847.55;128151;1111;23033;-74
2021/03/07 03:54:59;;;;;;;11.80;4.87;;;;;;;-2.57;66.89;99842.05;128298;1110;22845;-74
2021/03/07 03:57:28;;;;;;;7.83;4.30;;;;;;;-2.54;66.95;99839.06;128236;1111;23511;-75
2021/03/07 03:59:57;;;;;;;8.70;4.37;;;;;;;-2.54;66.38;99831.06;128247;1110;22843;-74
2021/03/07 04:02:25;;;;;;;11.10;5.20;;;;;;;-2.53;66.50;99822.05;128255;1112;23167;-75
2021/03/07 04:04:54;;;;;;;8.70;4.60;;;;;;;-2.52;66.64;99818.39;128201;1111;22932;-74
2021/03/07 04:07:22;;;;;;;11.13;5.03;;;;;;;-2.51;66.38;99811.22;128309;1111;23658;-74
2021/03/07 04:09:50;;;;;;;10.37;4.27;;;;;;;-2.47;66.60;99803.73;128135;1111;22871;-73
2021/03/07 04:12:18;;;;;;;8.50;4.27;;;;;;;-2.46;66.44;99797.39;128338;1111;22952;-70
2021/03/07 04:14:46;;;;;;;10.23;4.63;;;;;;;-2.44;66.60;99788.19;128100;1111;22892;-73
2021/03/07 04:17:19;;;;;;;10.27;5.10;;;;;;;-2.42;66.57;99782.70;128253;1111;22991;-70
2021/03/07 04:19:47;;;;;;;8.17;4.50;;;;;;;-2.42;66.08;99778.19;128210;1111;23715;-70
2021/03/07 04:22:14;;;;;;;9.23;4.57;;;;;;;-2.40;66.20;99772.69;128268;1112;23036;-71
2021/03/07 04:24:42;;;;;;;9.23;4.87;;;;;;;-2.40;66.51;99767.36;128213;1110;22854;-70
2021/03/07 04:27:10;;;;;;;12.33;5.83;;;;;;;-2.38;66.71;99763.52;128333;1111;23818;-71
2021/03/07 04:29:37;;;;;;;12.73;5.73;;;;;;;-2.37;66.52;99749.18;128111;1112;23596;-70
2021/03/07 04:32:05;;;;;;;13.85;5.55;;;;;;;-2.36;66.42;99750.02;128360;1111;22807;-71
2021/03/07 04:34:34;;;;;;;11.97;4.77;;;;;;;-2.37;66.35;99745.68;128176;1112;22972;-71
2021/03/07 04:37:02;;;;;;;9.53;5.27;;;;;;;-2.38;66.71;99739.51;125032;1112;24400;-70
2021/03/07 04:39:31;;;;;;;10.30;5.10;;;;;;;-2.36;66.52;99737.51;128156;1111;23819;-71
2021/03/07 04:41:59;;;;;;;10.60;5.60;;;;;;;-2.37;66.51;99735.84;128278;1111;22880;-74
2021/03/07 04:44:38;;;;;;;11.77;4.73;;;;;;;-2.44;66.56;99720.66;128163;1111;23511;-74
2021/03/07 04:47:05;;;;;;;12.60;5.33;;;;;;;-2.38;66.99;99728.84;128329;1111;22903;-70
2021/03/07 04:49:46;;;;;;;12.43;5.13;;;;;;;-2.36;66.30;99737.51;128215;1111;24097;-71
2021/03/07 04:52:13;;;;;;;12.67;5.37;;;;;;;-2.35;66.76;99731.17;128346;1111;22850;-71
2021/03/07 04:54:41;;;;;;;12.57;5.30;;;;;;;-2.33;66.76;99728.34;128201;1111;22894;-71
2021/03/07 04:57:08;;;;;;;15.27;5.77;;;;;;;-2.28;66.88;99725.97;128303;1111;24023;-72
2021/03/07 04:59:36;;;;;;;11.70;5.60;;;;;;;-2.28;66.66;99717.97;128371;1111;22961;-71
2021/03/07 05:02:03;;;;;;;10.53;6.10;;;;;;;-2.27;66.70;99720.47;128169;1110;23572;-72
2021/03/07 05:04:31;;;;;;;10.67;5.57;;;;;;;-2.24;66.75;99716.63;128304;1111;23507;-72
2021/03/07 05:07:01;;;;;;;10.47;5.63;;;;;;;-2.20;66.90;99716.12;128181;1111;24040;-71
2021/03/07 05:09:28;;;;;;;13.73;5.90;;;;;;;-2.18;66.87;99718.63;128233;1111;23445;-71
2021/03/07 05:11:56;;;;;;;11.00;5.27;;;;;;;-2.16;66.84;99705.91;128214;1110;22810;-73
2021/03/07 05:14:23;;;;;;;11.53;5.47;;;;;;;-2.12;66.82;99712.58;128329;1111;22905;-73
2021/03/07 05:16:51;;;;;;;11.00;6.30;;;;;;;-2.08;66.60;99711.24;128125;1112;22851;-73
2021/03/07 05:19:18;;;;;;;11.47;5.23;;;;;;;-2.06;67.03;99709.23;128312;1110;23402;-74
2021/03/07 05:21:46;;;;;;;13.20;6.50;;;;;;;-2.02;67.15;99705.20;128169;1111;22996;-74
2021/03/07 05:24:13;;;;;;;12.07;6.80;;;;;;;-1.98;66.82;99695.02;128333;1111;22838;-74
2021/03/07 05:26:41;;;;;;;16.87;7.70;;;;;;;-1.95;66.81;99698.17;128145;1111;23423;-74
2021/03/07 05:29:08;;;;;;;20.23;6.73;;;;;;;-1.92;66.72;99689.83;128289;1111;22918;-74
2021/03/07 05:31:38;;;;;;;13.60;6.53;;;;;;;-1.88;67.00;99693.82;128172;1111;23984;-74
2021/03/07 05:34:05;;;;;;;11.37;5.97;;;;;;;-1.85;66.79;99690.78;128265;1112;22846;-74
2021/03/07 05:36:33;;;;;;;12.60;7.17;;;;;;;-1.80;66.75;99690.27;128210;1112;22916;-74
2021/03/07 05:39:00;;;;;;;12.00;6.97;;;;;;;-1.77;66.60;99692.59;128315;1112;22852;-74
2021/03/07 05:41:27;;;;;;;11.63;6.80;;;;;;;-1.73;66.84;99691.22;128227;1111;22893;-75
2021/03/07 05:43:55;;;;;;;12.40;7.03;;;;;;;-1.69;66.59;99686.36;128294;1111;23645;-74
2021/03/07 05:46:22;;;;;;;13.13;6.87;;;;;;;-1.66;65.98;99684.18;128261;1111;24091;-74
2021/03/07 05:48:50;;;;;;;15.07;7.43;;;;;;;-1.62;66.67;99673.98;128192;1111;23036;-74
2021/03/07 05:51:17;;;;;;;12.10;6.63;;;;;;;-1.59;66.54;99666.45;128289;1110;22899;-74
2021/03/07 05:53:46;;;;;;;16.33;7.27;;;;;;;-1.53;66.65;99672.91;128149;1111;23516;-75
2021/03/07 05:56:14;;;;;;;18.03;8.60;;;;;;;-1.47;66.23;99673.05;128338;1110;22894;-75
2021/03/07 05:58:41;;;;;;;18.20;10.17;;;;;;;-1.42;66.45;99664.48;128164;1110;23117;-74
2021/03/07 06:01:09;;;;;;;21.23;9.33;;;;;;;-1.36;66.23;99657.61;128246;1111;22911;-74
2021/03/07 06:03:37;;;;;;;16.17;9.27;;;;;;;-1.34;66.12;99655.59;128176;1111;23016;-74
2021/03/07 06:06:04;;;;;;;15.97;8.30;;;;;;;-1.29;66.43;99655.88;128278;1110;23127;-73
2021/03/07 06:08:32;;;;;;;14.47;7.77;;;;;;;-1.24;66.16;99653.50;128174;1111;23677;-73
2021/03/07 06:11:00;;;;;;;15.80;8.30;;;;;;;-1.19;65.86;99645.78;128256;1111;22905;-73
2021/03/07 06:13:43;;;;;;;15.67;7.47;;;;;;;-1.14;65.88;99644.22;128077;1112;22879;-72
2021/03/07 06:16:11;;;;;;;16.83;7.93;;;;;;;-1.09;65.93;99633.83;128237;1111;23500;-71
2021/03/07 06:18:40;;;;;;;16.87;8.20;;;;;;;-1.02;65.79;99635.80;128160;1112;22819;-72
2021/03/07 06:21:27;;;;;;;15.60;8.63;;;;;;;-0.99;65.24;99633.56;128277;1111;22892;-70
2021/03/07 06:23:55;;;;;;;16.83;7.93;;;;;;;-0.93;65.48;99634.70;128141;1112;22966;-71
2021/03/07 06:26:22;;;;;;;20.23;8.97;;;;;;;-0.87;65.54;99639.33;128210;1111;22921;-73
2021/03/07 06:29:06;;;;;;;19.17;8.27;;;;;;;-0.82;65.46;99635.08;128114;1111;23128;-72
2021/03/07 06:31:33;;;;;;;11.67;6.97;;;;;;;-0.76;64.90;99633.53;128233;1111;22961;-72
2021/03/07 06:34:01;;;;;;;22.47;8.77;;;;;;;-0.69;65.00;99629.09;128136;1111;22854;-72
2021/03/07 06:36:29;;;;;;;15.43;7.20;;;;;;;-0.65;64.95;99621.54;125933;1111;23052;-71
2021/03/07 06:39:02;;;;;;;15.60;8.07;;;;;;;-0.62;64.82;99626.53;125140;1112;25548;-70
2021/03/07 06:41:31;;;;;;;14.03;7.83;;;;;;;-0.58;63.99;99623.31;125122;1111;23141;-70
2021/03/07 06:44:09;;;;;;;17.53;8.00;;;;;;;-0.54;64.81;99618.41;128163;1112;23187;-70
2021/03/07 06:46:46;;;;;;;16.23;7.97;;;;;;;-0.51;64.17;99610.84;128239;1111;23269;-70
2021/03/07 06:49:40;;;;;;;14.73;7.77;;;;;;;-0.46;64.29;99608.45;128161;1111;22849;-70
2021/03/07 06:52:18;;;;;;;14.77;7.93;;;;;;;-0.43;64.13;99616.09;128265;1111;24108;-70
2021/03/07 06:55:05;;;;;;;15.23;8.27;;;;;;;-0.39;63.97;99606.69;128126;1111;23458;-70
2021/03/07 06:57:32;;;;;;;20.83;8.40;;;;;;;-0.34;63.98;99605.30;128275;1111;22895;-70
2021/03/07 07:00:00;;;;;;;15.13;7.83;;;;;;;-0.29;63.81;99602.91;128197;1108;22843;-70
2021/03/07 07:02:27;;;;;;;17.23;7.93;;;;;;;-0.20;63.41;99585.72;128259;1107;23782;-69
2021/03/07 07:04:57;;;;;;;14.77;8.17;;;;;;;-0.15;63.63;99594.86;128179;1108;22847;-68
2021/03/07 07:07:25;;;;;;;19.03;9.03;;;;;;;-0.11;63.56;99580.05;125869;1107;26389;-70
2021/03/07 07:09:58;;;;;;;19.47;9.77;;;;;;;-0.05;63.48;99567.78;125636;1108;23101;-72
2021/03/07 07:12:27;;;;;;;17.33;8.57;;;;;;;0.00;62.85;99562.69;125632;1108;23096;-71
2021/03/07 07:15:14;;;;;;;17.77;8.43;;;;;;;0.07;63.39;99557.39;125666;1108;23103;-71
2021/03/07 07:17:41;;;;;;;14.93;8.40;;;;;;;0.14;63.18;99556.46;125687;1109;23051;-70
2021/03/07 07:20:15;;;;;;;20.30;8.33;;;;;;;0.22;62.24;99544.78;125721;1108;23349;-71
2021/03/07 07:22:42;;;;;;;17.13;8.43;;;;;;;0.27;63.05;99553.91;125621;1109;23078;-70
2021/03/07 07:25:10;;;;;;;13.73;7.40;;;;;;;0.30;62.50;99534.75;125551;1107;23049;-70
2021/03/07 07:27:38;;;;;;;19.30;8.93;;;;;;;0.34;62.37;99545.92;128185;1108;23661;-71
2021/03/07 07:30:06;;;;;;;17.33;7.87;;;;;;;0.38;62.89;99547.20;128341;1107;24219;-69
2021/03/07 07:32:35;;;;;;;15.33;9.47;;;;;;;0.42;62.43;99540.45;128291;1109;23054;-69
2021/03/07 07:35:17;;;;;;;17.73;8.33;;;;;;;0.45;62.86;99540.05;128304;1108;23377;-68
2021/03/07 07:37:52;;;;;;;11.87;7.60;;;;;;;0.49;61.99;99535.96;128180;1109;23039;-69
2021/03/07 07:40:19;;;;;;;16.80;8.35;;;;;;;0.52;62.13;99535.58;126393;1108;23109;-71
2021/03/07 07:42:59;;;;;;;17.03;8.23;;;;;;;0.56;62.91;99526.14;128198;1108;22882;-70
2021/03/07 07:45:27;;;;;;;13.77;8.00;;;;;;;0.61;63.25;99529.05;128276;1108;22848;-69
2021/03/07 07:47:57;;;;;;;19.33;8.27;;;;;;;0.66;62.76;99515.91;128178;1108;23005;-68
2021/03/07 07:52:59;;;;;;;15.07;8.07;;;;;;;0.76;62.40;99514.72;128165;1107;22854;-72
2021/03/07 07:55:46;;;;;;;18.30;8.97;;;;;;;0.82;62.75;99498.70;128327;1107;22818;-72
2021/03/07 07:58:39;;;;;;;15.27;7.77;;;;;;;0.89;62.26;99506.77;128227;1108;22948;-71
2021/03/07 08:01:08;;;;;;;13.27;6.87;;;;;;;0.93;61.59;99491.95;128366;1108;22861;-72
2021/03/07 08:03:36;;;;;;;14.90;7.90;;;;;;;0.95;60.76;99474.64;128207;1108;23884;-71
2021/03/07 08:06:05;;;;;;;14.73;7.67;;;;;;;0.95;61.26;99489.91;128292;1108;23774;-72
2021/03/07 08:08:40;;;;;;;14.97;7.90;;;;;;;0.95;61.35;99471.12;128131;1107;22854;-71
2021/03/07 08:11:26;;;;;;;16.83;7.33;;;;;;;0.93;60.73;99487.42;128226;1107;22855;-71
2021/03/07 08:13:58;;;;;;;14.47;8.37;;;;;;;0.88;60.04;99476.44;128205;1107;22990;-70
2021/03/07 08:16:38;;;;;;;15.40;7.87;;;;;;;0.90;60.58;99473.56;128330;1108;24311;-68
2021/03/07 08:19:07;;;;;;;14.60;7.07;;;;;;;0.89;60.32;99469.22;128197;1109;22912;-68
2021/03/07 08:21:57;;;;;;;19.23;8.20;;;;;;;0.87;61.06;99453.33;128315;1108;22911;-68
2021/03/07 08:24:47;;;;;;;17.13;8.00;;;;;;;0.87;60.31;99457.86;128239;1108;22853;-68
2021/03/07 08:27:30;;;;;;;13.60;7.60;;;;;;;0.86;61.37;99459.74;128323;1109;23013;-68
2021/03/07 08:29:57;;;;;;;16.70;9.10;;;;;;;0.86;60.44;99449.02;128275;1107;22888;-68
2021/03/07 08:32:28;;;;;;;17.20;8.13;;;;;;;0.85;60.40;99458.09;128286;1107;23366;-68
2021/03/07 08:34:57;;;;;;;11.63;7.53;;;;;;;0.86;60.42;99453.55;128248;1109;22813;-68
2021/03/07 08:37:26;;;;;;;18.07;9.47;;;;;;;0.88;61.85;99444.25;128317;1108;22833;-67
2021/03/07 08:40:30;;;;;;;21.13;8.83;;;;;;;0.90;61.01;99439.52;128173;1108;23728;-68
2021/03/07 08:43:23;;;;;;;21.87;7.73;;;;;;;0.90;60.61;99436.84;128340;1108;22916;-68
2021/03/07 08:46:04;;;;;;;17.80;8.65;;;;;;;0.92;61.33;99442.84;128212;1108;22921;-68
2021/03/07 08:48:32;;;;;;;17.80;7.50;;;;;;;0.94;60.54;99451.52;128356;1108;25286;-68
2021/03/07 08:51:00;;;;;;;13.67;7.53;;;;;;;0.96;60.75;99444.11;128236;1107;22850;-68
2021/03/07 08:53:29;;;;;;;13.17;6.57;;;;;;;0.97;60.52;99426.16;128338;1108;22833;-68
2021/03/07 08:55:56;;;;;;;17.37;8.17;;;;;;;0.96;60.65;99430.70;128236;1108;22895;-69
2021/03/07 08:58:24;;;;;;;14.67;7.93;;;;;;;0.97;61.88;99428.84;128345;1108;22906;-68
2021/03/07 09:00:53;;;;;;;13.17;7.47;;;;;;;0.98;61.25;99439.38;128209;1108;22831;-68
2021/03/07 09:03:22;;;;;;;16.60;8.83;;;;;;;1.00;60.94;99431.97;128336;1108;24147;-68
2021/03/07 09:05:50;;;;;;;17.87;8.30;;;;;;;1.05;61.42;99425.98;128361;1108;22907;-68
2021/03/07 09:08:21;;;;;;;14.17;8.20;;;;;;;1.08;61.91;99428.27;128420;1108;25025;-68
2021/03/07 09:10:50;;;;;;;15.10;7.27;;;;;;;1.11;61.66;99414.47;128319;1108;22958;-68
2021/03/07 09:13:23;;;;;;;11.57;7.40;;;;;;;1.13;61.62;99431.20;128310;1109;22965;-68
2021/03/07 09:16:01;;;;;;;18.30;8.53;;;;;;;1.15;61.58;99421.09;127199;1108;23022;-69
2021/03/07 09:18:35;;;;;;;13.47;7.70;;;;;;;1.16;61.60;99419.22;128361;1107;23004;-68
2021/03/07 09:21:18;;;;;;;13.60;7.43;;;;;;;1.15;61.14;99420.27;128277;1108;22840;-69
2021/03/07 09:23:48;;;;;;;18.77;8.57;;;;;;;1.15;61.31;99409.54;128301;1108;22884;-69
2021/03/07 09:26:19;;;;;;;21.00;8.50;;;;;;;1.15;61.45;99401.48;128255;1108;22886;-69
2021/03/07 09:28:51;;;;;;;19.43;9.77;;;;;;;1.15;61.44;99396.95;128409;1107;23650;-67
2021/03/07 09:31:19;;;;;;;19.73;7.67;;;;;;;1.17;60.56;99402.09;128194;1107;22811;-68
2021/03/07 09:34:00;;;;;;;19.67;8.70;;;;;;;1.17;61.88;99399.41;128320;1108;22857;-67
2021/03/07 09:36:30;;;;;;;15.85;8.10;;;;;;;1.17;60.52;99399.41;128127;1108;22834;-68
2021/03/07 09:39:11;;;;;;;18.60;8.57;;;;;;;1.16;61.77;99392.38;128310;1108;22848;-68
2021/03/07 09:41:46;;;;;;;20.53;9.43;;;;;;;1.15;61.58;99406.86;128256;1109;22881;-67
2021/03/07 09:44:21;;;;;;;22.07;9.57;;;;;;;1.17;61.59;99402.09;128358;1109;22859;-68
2021/03/07 09:46:52;;;;;;;19.33;7.60;;;;;;;1.17;61.54;99394.04;125702;1109;23209;-67
2021/03/07 09:49:23;;;;;;;15.37;7.37;;;;;;;1.17;60.83;99392.19;128248;1108;22819;-68
2021/03/07 09:51:52;;;;;;;17.87;7.90;;;;;;;1.17;61.24;99392.19;128249;1108;22883;-68
2021/03/07 09:54:19;;;;;;;14.90;7.57;;;;;;;1.16;60.95;99401.26;128342;1108;22936;-67
2021/03/07 09:56:47;;;;;;;16.90;8.17;;;;;;;1.16;61.14;99397.75;128195;1108;22972;-67
2021/03/07 09:59:21;;;;;;;25.10;9.23;;;;;;;1.13;61.55;99395.49;128288;1108;23653;-68
2021/03/07 10:01:59;;;;;;;14.30;8.20;;;;;;;1.10;60.44;99393.20;128204;1109;22886;-67
2021/03/07 10:04:41;;;;;;;11.27;6.80;;;;;;;1.09;60.86;99403.11;128327;1108;22860;-68
2021/03/07 10:07:09;;;;;;;13.60;6.97;;;;;;;1.11;61.55;99386.81;128292;1108;22989;-67
2021/03/07 10:10:15;;;;;;;14.73;6.63;;;;;;;1.11;60.58;99387.64;128332;1108;22848;-67
2021/03/07 10:12:44;;;;;;;14.27;7.40;;;;;;;1.11;61.53;99384.13;128213;1107;23125;-67
2021/03/07 10:15:21;;;;;;;14.57;7.47;;;;;;;1.08;61.06;99369.25;128373;1108;23524;-67
2021/03/07 10:17:48;;;;;;;10.98;6.37;;;;;;;1.08;61.57;99377.30;128245;1109;22953;-68
2021/03/07 10:20:16;;;;;;;17.53;7.80;;;;;;;1.09;61.41;99380.81;128298;1109;23055;-68
2021/03/07 10:22:46;;;;;;;15.23;7.67;;;;;;;1.11;61.65;99378.77;128142;1108;23910;-68
2021/03/07 10:25:40;;;;;;;13.77;7.60;;;;;;;1.11;61.92;99371.55;128341;1108;22836;-68
2021/03/07 10:28:29;;;;;;;10.70;7.07;;;;;;;1.12;60.75;99361.64;128273;1107;22851;-68
2021/03/07 10:31:14;;;;;;;13.33;6.83;;;;;;;1.12;61.73;99354.42;128300;1107;22812;-68
2021/03/07 10:33:42;;;;;;;14.83;6.20;;;;;;;1.14;61.38;99357.73;128190;1108;22874;-67
2021/03/07 10:36:17;;;;;;;11.60;6.47;;;;;;;1.14;60.43;99356.91;128262;1108;23691;-68
2021/03/07 10:38:49;;;;;;;19.13;7.23;;;;;;;1.14;61.33;99357.73;128253;1108;23535;-68
2021/03/07 10:41:33;;;;;;;19.53;7.63;;;;;;;1.16;61.05;99354.81;128291;1108;22894;-67
2021/03/07 10:44:04;;;;;;;12.77;7.23;;;;;;;1.17;61.10;99345.74;128189;1107;22918;-67
2021/03/07 10:46:36;;;;;;;10.50;6.60;;;;;;;1.19;61.47;99338.33;128345;1108;24027;-67
2021/03/07 10:49:19;;;;;;;12.10;6.80;;;;;;;1.21;61.27;99342.47;128234;1107;22956;-67
2021/03/07 10:51:48;;;;;;;13.43;6.57;;;;;;;1.23;62.44;99328.84;128373;1107;22851;-67
2021/03/07 10:54:15;;;;;;;11.73;6.90;;;;;;;1.25;61.26;99326.80;128261;1108;22842;-67
2021/03/07 10:56:43;;;;;;;11.50;6.80;;;;;;;1.24;61.22;99327.82;128312;1109;22831;-66
2021/03/07 10:59:10;;;;;;;13.97;6.27;;;;;;;1.26;62.00;99318.55;128259;1108;22842;-67
2021/03/07 11:01:38;;;;;;;14.93;7.93;;;;;;;1.29;61.37;99322.69;128343;1108;22843;-67
2021/03/07 11:04:07;;;;;;;15.97;7.87;;;;;;;1.31;61.60;99323.28;128137;1108;22817;-67
2021/03/07 11:06:34;;;;;;;12.10;7.07;;;;;;;1.34;62.24;99312.97;128372;1108;22908;-67
2021/03/07 11:09:02;;;;;;;12.77;6.83;;;;;;;1.33;61.89;99303.27;128337;1107;22845;-68
2021/03/07 11:11:33;;;;;;;11.63;5.97;;;;;;;1.34;61.58;99299.55;128294;1107;22888;-68
2021/03/07 11:14:00;;;;;;;12.23;7.53;;;;;;;1.34;61.90;99309.46;128391;1108;22840;-67
2021/03/07 11:16:29;;;;;;;17.97;6.60;;;;;;;1.34;60.89;99299.55;128325;1108;22836;-67
2021/03/07 11:19:16;;;;;;;15.38;7.15;;;;;;;1.36;62.01;99302.03;128367;1108;22987;-67
2021/03/07 11:21:43;;;;;;;14.77;6.63;;;;;;;1.37;61.16;99301.01;128274;1109;23697;-68
2021/03/07 11:24:11;;;;;;;14.27;6.47;;;;;;;1.36;62.14;99292.13;128270;1107;22828;-67
2021/03/07 11:26:38;;;;;;;16.27;6.17;;;;;;;1.36;61.16;99292.13;128248;1108;22861;-68
2021/03/07 11:29:05;;;;;;;12.70;6.35;;;;;;;1.39;61.46;99282.84;128354;1108;22971;-67
2021/03/07 11:31:33;;;;;;;12.93;6.27;;;;;;;1.40;61.05;99276.45;128206;1107;23664;-67
2021/03/07 11:34:01;;;;;;;11.43;6.47;;;;;;;1.42;62.01;99285.13;128329;1108;22847;-67
2021/03/07 11:36:29;;;;;;;13.63;6.87;;;;;;;1.42;61.61;99279.76;128217;1108;23039;-67
2021/03/07 11:38:56;;;;;;;17.47;7.57;;;;;;;1.43;61.42;99283.27;128355;1107;23649;-67
2021/03/07 11:41:24;;;;;;;19.30;7.35;;;;;;;1.43;61.17;99276.05;128271;1108;22978;-67